Charlevoix, MI

8:51 AM EDT on May 23, 2017 (GMT -0400)
1.5 W Ironton | | Change Station
Active Advisory: Special Statement

Elev 750 ft 45.26 °N, 85.22 °W | Updated 9 seconds ago

Overcast
Overcast
52.1 °F
Feels Like 52.1 °F
N
3.0
Wind Variable Wind from SE
Gusts 3.0 mph

Today
High -- | Low -- °F
--% Chance of Precip.
Yesterday
High -- | Low -- °F
Precip. -- in
Pressure 29.88 in
Visibility 1.5 miles
Clouds Overcast 100 ft
Dew Point 50 °F
Humidity 91%
Rainfall 0.00 in
Snow Depth Not available.
6:02 AM 9:13 PM
Waning Crescent, 8% visible
METAR KCVX 231234Z AUTO 00000KT 1 1/2SM BR OVC001 09/09 A2988 RMK AO2 T00850085
Pressure 29.88 in
Visibility 1.5 miles
Clouds Overcast 100 ft
Dew Point 50 °F
Humidity 91%
Rainfall 0.00 in
Snow Depth Not available.
6:02 AM 9:13 PM
Waning Crescent, 8% visible
METAR KCVX 231234Z AUTO 00000KT 1 1/2SM BR OVC001 09/09 A2988 RMK AO2 T00850085

Get Your Daily Forecast Email!

Thanks for signing up!

Be on the lookout for a verification email in your inbox.

You'll start receiving severe weather alerts in your inbox..

×

10-Day Weather Forecast

Almanac

Astronomy

May. 23, 2017 Rise Set
Actual Time
Civil Twilight
Nautical Twilight
Astronomical Twilight
Moon
Length of Visible Light
Length of Day
Tomorrow will be .
, % of the Moon is Illuminated

Today's Extremes

State Highs State Lows

Community

WunderPhotos

Category 6

Welcome to Category 6. This is the collective home for Weather Underground's featured writeups by Dr. Jeff Masters (right), Bob Henson (left), Chris Burt, and other regular contributors.

Nearby

Air Quality

  Air Quality AQ Index Pollutant
Not available.

Snow Depth

Station Depth Elevation

Earthquake Activity

City Distance Mag. Time & Date
Minimum magnitude displayed is 2.5.

Coastal Water Temperatures

Place Temperature

Stations

Nearby Weather Stations

Station Location Temp. Windchill Dew Point Humidity Wind Precip. Elev Updated Type
                   

Watches & Warnings

Special Statement
Issued: 6:37 AM EDT May. 23, 2017 – National Weather Service

... Areas of fog this morning...

Areas of fog will be found across the region this morning... reducing
visibilities to one quarter mile or less in spots. When traveling
this morning... slow down... use caution and allow extra time to
reach your destination.


637 am EDT Tue may 23 2017

... Areas of fog this morning...

Areas of fog will be found across the region this morning... reducing
visibilities to one quarter mile or less in spots. When traveling
this morning... slow down... use caution and allow extra time to
reach your destination.